Time;durP1;ratioP1;P1;durP2;ratioP2;P2;SDS_P1;SDS_P2;PMS_P1;PMS_P2;Temp;Humidity;BMP_temperature;BMP_pressure;BME280_temperature;BME280_humidity;BME280_pressure;Samples;Min_cycle;Max_cycle;Signal;HPM_P1;HPM_P2
2022/03/23 00:01:38;;;;;;;16.08;8.73;;;;;;;;;;4954063;28;20043;-70
2022/03/23 00:04:03;;;;;;;20.35;9.05;;;;;;;;;;4951452;28;20043;-70
2022/03/23 00:06:28;;;;;;;17.30;8.52;;;;;;;;;;4950834;28;20062;-70
2022/03/23 00:08:54;;;;;;;14.13;8.05;;;;;;;;;;4944037;28;20043;-70
2022/03/23 00:11:20;;;;;;;14.80;7.88;;;;;;;;;;4947416;28;20023;-70
2022/03/23 00:13:46;;;;;;;15.10;8.35;;;;;;;;;;4953017;28;20495;-70
2022/03/23 00:16:12;;;;;;;11.20;7.57;;;;;;;;;;4946999;28;20039;-70
2022/03/23 00:18:37;;;;;;;13.70;8.68;;;;;;;;;;4945631;28;20085;-70
2022/03/23 00:21:03;;;;;;;14.68;8.63;;;;;;;;;;4943806;28;20035;-70
2022/03/23 00:23:28;;;;;;;13.30;8.07;;;;;;;;;;4947986;28;20046;-70
2022/03/23 00:25:54;;;;;;;15.70;7.43;;;;;;;;;;4943602;28;20058;-70
2022/03/23 00:28:20;;;;;;;15.13;7.13;;;;;;;;;;4951184;28;20068;-70
2022/03/23 00:30:48;;;;;;;11.75;7.30;;;;;;;;;;4949659;28;20034;-70
2022/03/23 00:33:15;;;;;;;11.45;7.13;;;;;;;;;;4944953;28;20093;-70
2022/03/23 00:35:40;;;;;;;11.20;7.07;;;;;;;;;;4929077;28;20043;-70
2022/03/23 00:38:06;;;;;;;11.82;6.82;;;;;;;;;;4933605;28;20038;-70
2022/03/23 00:40:34;;;;;;;11.35;7.05;;;;;;;;;;4946803;28;20166;-70
2022/03/23 00:43:01;;;;;;;12.98;6.28;;;;;;;;;;4952319;28;20034;-70
2022/03/23 00:45:28;;;;;;;12.60;6.40;;;;;;;;;;4933937;28;20050;-70
2022/03/23 00:47:54;;;;;;;12.27;7.15;;;;;;;;;;4948288;28;20063;-70
2022/03/23 00:50:19;;;;;;;9.00;6.60;;;;;;;;;;4937457;28;20043;-69
2022/03/23 00:52:47;;;;;;;9.70;6.60;;;;;;;;;;4949872;28;20058;-70
2022/03/23 00:55:14;;;;;;;10.60;6.50;;;;;;;;;;4953438;28;20042;-70
2022/03/23 00:57:39;;;;;;;9.15;5.70;;;;;;;;;;4944686;28;20031;-70
2022/03/23 01:00:12;;;;;;;11.93;6.70;;;;;;;;;;4950943;28;20031;-71
2022/03/23 01:02:41;;;;;;;14.88;7.53;;;;;;;;;;4944737;28;20157;-70
2022/03/23 01:05:08;;;;;;;17.33;8.02;;;;;;;;;;4941716;28;20034;-71
2022/03/23 01:07:34;;;;;;;16.60;8.80;;;;;;;;;;4943056;28;21110;-71
2022/03/23 01:10:00;;;;;;;15.70;8.95;;;;;;;;;;4952636;28;20047;-71
2022/03/23 01:12:27;;;;;;;14.38;8.30;;;;;;;;;;4945678;28;20377;-71
2022/03/23 01:14:52;;;;;;;17.02;9.32;;;;;;;;;;4930628;28;20412;-70
2022/03/23 01:17:18;;;;;;;16.00;8.05;;;;;;;;;;4949556;28;20587;-70
2022/03/23 01:19:44;;;;;;;17.58;8.82;;;;;;;;;;4948728;28;20031;-70
2022/03/23 01:22:10;;;;;;;13.10;8.52;;;;;;;;;;4940554;28;20073;-70
2022/03/23 01:24:35;;;;;;;17.48;8.65;;;;;;;;;;4946736;28;20047;-70
2022/03/23 01:27:02;;;;;;;12.93;7.82;;;;;;;;;;4939578;28;20049;-70
2022/03/23 01:29:28;;;;;;;16.02;8.48;;;;;;;;;;4934594;28;20035;-70
2022/03/23 01:31:53;;;;;;;14.88;9.15;;;;;;;;;;4932438;28;20037;-70
2022/03/23 01:34:20;;;;;;;20.10;9.40;;;;;;;;;;4936637;28;21151;-70
2022/03/23 01:36:48;;;;;;;16.05;9.40;;;;;;;;;;4946780;28;20504;-70
2022/03/23 01:39:14;;;;;;;13.27;6.65;;;;;;;;;;4946847;28;20129;-71
2022/03/23 01:41:41;;;;;;;13.73;7.70;;;;;;;;;;4946560;28;20071;-70
2022/03/23 01:44:17;;;;;;;16.08;7.93;;;;;;;;;;4951367;28;20066;-70
2022/03/23 01:47:06;;;;;;;10.27;5.85;;;;;;;;;;4954189;28;20082;-70
2022/03/23 01:49:33;;;;;;;8.20;4.90;;;;;;;;;;4948532;28;20050;-70
2022/03/23 01:51:58;;;;;;;11.60;4.90;;;;;;;;;;4940992;28;20042;-70
2022/03/23 01:54:24;;;;;;;5.40;3.92;;;;;;;;;;4954364;28;20031;-70
2022/03/23 01:56:50;;;;;;;7.95;4.72;;;;;;;;;;4933473;28;20065;-70
2022/03/23 01:59:17;;;;;;;6.38;4.82;;;;;;;;;;4946119;28;20066;-70
2022/03/23 02:01:44;;;;;;;8.40;4.43;;;;;;;;;;4950778;28;20067;-70
2022/03/23 02:04:10;;;;;;;6.35;3.97;;;;;;;;;;4951431;28;20086;-70
2022/03/23 02:06:36;;;;;;;6.60;4.10;;;;;;;;;;4943986;28;20385;-71
2022/03/23 02:09:05;;;;;;;5.00;3.47;;;;;;;;;;4944659;28;20034;-71
2022/03/23 02:11:33;;;;;;;6.22;4.07;;;;;;;;;;4934622;28;20078;-70
2022/03/23 02:13:59;;;;;;;5.63;3.33;;;;;;;;;;4932406;28;20051;-70
2022/03/23 02:16:25;;;;;;;6.45;4.10;;;;;;;;;;4936458;28;20163;-71
2022/03/23 02:18:50;;;;;;;6.05;3.95;;;;;;;;;;4944692;28;20134;-70
2022/03/23 02:21:16;;;;;;;9.13;4.57;;;;;;;;;;4946719;28;20039;-70
2022/03/23 02:23:42;;;;;;;5.13;3.75;;;;;;;;;;4934878;28;20408;-70
2022/03/23 02:26:08;;;;;;;9.10;4.50;;;;;;;;;;4958665;28;20039;-70
2022/03/23 02:28:35;;;;;;;4.75;3.63;;;;;;;;;;4951736;28;20039;-70
2022/03/23 02:31:01;;;;;;;5.07;4.22;;;;;;;;;;4949219;28;20085;-70
2022/03/23 02:33:28;;;;;;;6.40;3.78;;;;;;;;;;4948426;28;20035;-70
2022/03/23 02:35:54;;;;;;;5.38;4.00;;;;;;;;;;4954050;28;20039;-71
2022/03/23 02:38:19;;;;;;;5.72;4.13;;;;;;;;;;4955734;28;20042;-70
2022/03/23 02:40:45;;;;;;;9.65;3.80;;;;;;;;;;4957343;28;20062;-70
2022/03/23 02:43:11;;;;;;;5.55;3.13;;;;;;;;;;4959194;28;20046;-70
2022/03/23 02:45:36;;;;;;;6.57;3.72;;;;;;;;;;4951498;28;20043;-70
2022/03/23 02:48:03;;;;;;;8.00;4.13;;;;;;;;;;4956469;28;20031;-70
2022/03/23 02:50:29;;;;;;;7.25;3.47;;;;;;;;;;4953921;28;20043;-70
2022/03/23 03:01:53;;;;;;;7.65;4.78;;;;;;;;;;4953334;28;21101;-70
2022/03/23 03:04:23;;;;;;;8.48;4.78;;;;;;;;;;4954560;28;20039;-70
2022/03/23 03:06:49;;;;;;;6.15;4.15;;;;;;;;;;4956367;28;20027;-70
2022/03/23 03:09:15;;;;;;;6.97;4.60;;;;;;;;;;4949404;28;20038;-70
2022/03/23 03:11:44;;;;;;;5.50;3.90;;;;;;;;;;4952673;28;20294;-70
2022/03/23 03:14:11;;;;;;;7.82;4.00;;;;;;;;;;4953615;28;20121;-70
2022/03/23 03:16:37;;;;;;;9.77;4.10;;;;;;;;;;4952854;28;20035;-70
2022/03/23 03:19:10;;;;;;;7.93;3.72;;;;;;;;;;4951952;28;20043;-71
2022/03/23 03:21:36;;;;;;;5.28;4.03;;;;;;;;;;4949014;28;20086;-71
2022/03/23 03:24:02;;;;;;;7.57;3.45;;;;;;;;;;4950239;28;20272;-71
2022/03/23 03:26:31;;;;;;;4.55;3.53;;;;;;;;;;4949707;28;20039;-71
2022/03/23 03:28:57;;;;;;;8.82;3.85;;;;;;;;;;4953323;28;20041;-71
2022/03/23 03:31:23;;;;;;;6.55;3.83;;;;;;;;;;4945198;28;20027;-71
2022/03/23 03:33:48;;;;;;;4.78;3.88;;;;;;;;;;4944505;28;20106;-71
2022/03/23 03:36:15;;;;;;;8.00;3.88;;;;;;;;;;4944558;28;20049;-71
2022/03/23 03:38:42;;;;;;;5.22;3.88;;;;;;;;;;4944590;28;20062;-71
2022/03/23 03:41:08;;;;;;;6.72;3.35;;;;;;;;;;4943858;28;20556;-71
2022/03/23 03:43:34;;;;;;;4.93;3.58;;;;;;;;;;4944387;28;20126;-71
2022/03/23 03:46:01;;;;;;;7.05;3.85;;;;;;;;;;4943871;28;20147;-71
2022/03/23 03:48:26;;;;;;;6.28;3.90;;;;;;;;;;4943879;28;20026;-71
2022/03/23 03:50:52;;;;;;;4.68;3.65;;;;;;;;;;4951462;28;20046;-72
2022/03/23 03:53:18;;;;;;;6.13;4.07;;;;;;;;;;4951549;28;20054;-71
2022/03/23 03:55:43;;;;;;;7.82;3.55;;;;;;;;;;4944225;28;20149;-70
2022/03/23 03:58:11;;;;;;;5.18;3.58;;;;;;;;;;4943400;28;20046;-71
2022/03/23 04:00:37;;;;;;;8.98;4.00;;;;;;;;;;4926325;28;20042;-71
2022/03/23 04:03:03;;;;;;;7.93;3.90;;;;;;;;;;4944107;28;20042;-71
2022/03/23 04:05:29;;;;;;;6.05;4.20;;;;;;;;;;4943567;28;20043;-71
2022/03/23 04:07:55;;;;;;;6.47;4.07;;;;;;;;;;4943295;28;20043;-71
2022/03/23 04:10:22;;;;;;;7.32;4.13;;;;;;;;;;4951110;28;20046;-71
2022/03/23 04:12:47;;;;;;;7.50;4.25;;;;;;;;;;4944108;28;20966;-71
2022/03/23 04:15:14;;;;;;;5.93;4.00;;;;;;;;;;4949165;28;20047;-71
2022/03/23 04:17:40;;;;;;;5.35;3.75;;;;;;;;;;4943450;28;20105;-71
2022/03/23 04:20:06;;;;;;;6.25;3.85;;;;;;;;;;4948988;28;20480;-70
2022/03/23 04:22:31;;;;;;;4.65;3.95;;;;;;;;;;4945148;28;20043;-70
2022/03/23 04:24:57;;;;;;;6.38;3.92;;;;;;;;;;4944009;28;20814;-71
2022/03/23 04:27:22;;;;;;;7.85;4.57;;;;;;;;;;4943421;28;20392;-71
2022/03/23 04:29:48;;;;;;;4.95;3.97;;;;;;;;;;4942116;28;20126;-71
2022/03/23 04:32:13;;;;;;;7.45;4.25;;;;;;;;;;4942613;28;20507;-71
2022/03/23 04:34:38;;;;;;;7.80;4.43;;;;;;;;;;4950888;28;20039;-71
2022/03/23 04:37:04;;;;;;;8.88;4.63;;;;;;;;;;4943380;28;20432;-71
2022/03/23 04:39:30;;;;;;;8.27;3.95;;;;;;;;;;4943519;28;20130;-71
2022/03/23 04:41:55;;;;;;;5.78;4.28;;;;;;;;;;4943622;28;20073;-71
2022/03/23 04:44:21;;;;;;;17.80;7.15;;;;;;;;;;4941257;28;20118;-71
2022/03/23 04:46:46;;;;;;;38.35;11.60;;;;;;;;;;4942931;28;20063;-71
2022/03/23 04:49:12;;;;;;;37.08;11.88;;;;;;;;;;4950728;28;20039;-71
2022/03/23 04:51:38;;;;;;;50.80;15.55;;;;;;;;;;4942457;28;20039;-71
2022/03/23 04:54:04;;;;;;;29.83;11.05;;;;;;;;;;4946351;28;20054;-71
2022/03/23 04:56:29;;;;;;;23.23;8.60;;;;;;;;;;4942784;28;20118;-70
2022/03/23 04:58:56;;;;;;;31.33;9.75;;;;;;;;;;4949265;28;20126;-71
2022/03/23 05:01:22;;;;;;;30.30;11.65;;;;;;;;;;4943317;28;20062;-70
2022/03/23 05:03:47;;;;;;;26.42;9.63;;;;;;;;;;4941950;28;20042;-72
2022/03/23 05:06:13;;;;;;;32.33;10.70;;;;;;;;;;4942957;28;20047;-71
2022/03/23 05:08:38;;;;;;;28.08;9.20;;;;;;;;;;4942814;28;20058;-72
2022/03/23 05:11:04;;;;;;;14.25;6.07;;;;;;;;;;4942851;28;20028;-73
2022/03/23 05:13:29;;;;;;;19.60;8.02;;;;;;;;;;4943740;28;20046;-71
2022/03/23 05:15:55;;;;;;;14.60;6.90;;;;;;;;;;4942587;28;20496;-71
2022/03/23 05:18:21;;;;;;;17.85;6.82;;;;;;;;;;4942893;28;20035;-71
2022/03/23 05:20:47;;;;;;;11.30;4.70;;;;;;;;;;4945695;28;20079;-69
2022/03/23 05:23:13;;;;;;;7.65;4.57;;;;;;;;;;4943109;28;20485;-71
2022/03/23 05:25:38;;;;;;;11.93;5.45;;;;;;;;;;4942142;28;20051;-70
2022/03/23 05:28:08;;;;;;;8.45;4.97;;;;;;;;;;4942967;28;20096;-69
2022/03/23 05:30:34;;;;;;;7.30;4.40;;;;;;;;;;4944192;28;20077;-70
2022/03/23 05:33:00;;;;;;;12.13;5.35;;;;;;;;;;4942967;28;20039;-72
2022/03/23 05:35:25;;;;;;;6.88;5.22;;;;;;;;;;4942182;28;20047;-69
2022/03/23 05:37:50;;;;;;;8.85;5.25;;;;;;;;;;4942773;28;20282;-72
2022/03/23 05:40:17;;;;;;;7.60;5.35;;;;;;;;;;4943794;28;20043;-71
2022/03/23 05:42:42;;;;;;;7.97;4.68;;;;;;;;;;4946023;28;20031;-71
2022/03/23 05:45:09;;;;;;;7.45;5.30;;;;;;;;;;4942789;28;20086;-71
2022/03/23 05:47:36;;;;;;;13.07;5.47;;;;;;;;;;4941835;28;20027;-72
2022/03/23 05:50:02;;;;;;;16.27;5.40;;;;;;;;;;4942456;28;20039;-70
2022/03/23 05:52:27;;;;;;;10.30;5.57;;;;;;;;;;4942786;28;20463;-72
2022/03/23 05:54:53;;;;;;;7.18;5.38;;;;;;;;;;4942869;28;20035;-69
2022/03/23 05:57:18;;;;;;;10.10;5.10;;;;;;;;;;4942135;28;20412;-70
2022/03/23 05:59:43;;;;;;;13.45;5.65;;;;;;;;;;4942292;28;20035;-70
2022/03/23 06:02:09;;;;;;;6.82;4.75;;;;;;;;;;4942577;28;20510;-69
2022/03/23 06:04:34;;;;;;;10.20;4.85;;;;;;;;;;4942343;28;20074;-69
2022/03/23 06:06:59;;;;;;;18.30;4.25;;;;;;;;;;4942481;28;20039;-70
2022/03/23 06:09:25;;;;;;;7.88;5.07;;;;;;;;;;4945451;28;20043;-70
2022/03/23 06:11:51;;;;;;;7.40;4.65;;;;;;;;;;4945911;28;20027;-71
2022/03/23 06:14:16;;;;;;;5.43;4.50;;;;;;;;;;4942925;28;20231;-75
2022/03/23 06:16:42;;;;;;;11.52;5.32;;;;;;;;;;4943922;28;20054;-70
2022/03/23 06:19:10;;;;;;;6.43;4.93;;;;;;;;;;4942808;28;20039;-74
2022/03/23 06:21:36;;;;;;;11.63;5.20;;;;;;;;;;4943955;28;20501;-71
2022/03/23 06:24:02;;;;;;;5.85;4.40;;;;;;;;;;4947460;28;20041;-71
2022/03/23 06:26:27;;;;;;;7.55;4.78;;;;;;;;;;4945894;28;20142;-75
2022/03/23 06:28:53;;;;;;;12.75;5.03;;;;;;;;;;4943898;28;20482;-70
2022/03/23 06:31:18;;;;;;;7.05;4.20;;;;;;;;;;4948982;28;20102;-73
2022/03/23 06:33:44;;;;;;;9.52;5.05;;;;;;;;;;4944709;28;20035;-70
2022/03/23 06:36:09;;;;;;;7.15;4.95;;;;;;;;;;4945234;28;20035;-71
2022/03/23 06:38:35;;;;;;;9.75;5.40;;;;;;;;;;4952179;28;20035;-70
2022/03/23 06:41:00;;;;;;;11.00;5.43;;;;;;;;;;4957422;28;20556;-72
2022/03/23 06:43:26;;;;;;;10.57;5.80;;;;;;;;;;4954652;28;20029;-69
2022/03/23 06:45:52;;;;;;;15.85;5.07;;;;;;;;;;4945199;28;20039;-70
2022/03/23 06:48:17;;;;;;;7.03;4.85;;;;;;;;;;4945520;28;20050;-70
2022/03/23 06:50:43;;;;;;;13.30;5.20;;;;;;;;;;4944822;28;20038;-74
2022/03/23 06:53:09;;;;;;;5.82;4.30;;;;;;;;;;4945963;28;20543;-70
2022/03/23 06:55:35;;;;;;;7.05;4.70;;;;;;;;;;4944757;28;20068;-70
2022/03/23 06:58:01;;;;;;;8.10;4.18;;;;;;;;;;4944675;28;20085;-71
2022/03/23 07:00:26;;;;;;;6.38;3.88;;;;;;;;;;4950384;28;20058;-69
2022/03/23 07:02:51;;;;;;;9.18;4.95;;;;;;;;;;4945328;28;20049;-69
2022/03/23 07:05:18;;;;;;;7.75;4.85;;;;;;;;;;4946322;28;20122;-72
2022/03/23 07:10:29;;;;;;;7.20;5.03;;;;;;;;;;4944570;28;20094;-71
2022/03/23 07:12:55;;;;;;;9.48;4.60;;;;;;;;;;4944977;28;20035;-69
2022/03/23 07:15:21;;;;;;;6.22;4.75;;;;;;;;;;4945494;28;20039;-71
2022/03/23 07:17:46;;;;;;;5.68;4.40;;;;;;;;;;4944875;28;20031;-68
2022/03/23 07:20:12;;;;;;;8.73;4.57;;;;;;;;;;4943129;28;20166;-68
2022/03/23 07:22:37;;;;;;;6.15;4.47;;;;;;;;;;4944665;28;20484;-69
2022/03/23 07:25:05;;;;;;;12.32;3.95;;;;;;;;;;4944697;28;20101;-68
2022/03/23 07:27:30;;;;;;;4.88;3.72;;;;;;;;;;4945994;28;20035;-70
2022/03/23 07:29:56;;;;;;;5.72;4.20;;;;;;;;;;4943956;28;20489;-70
2022/03/23 07:32:21;;;;;;;4.68;3.80;;;;;;;;;;4945384;28;20126;-70
2022/03/23 07:34:47;;;;;;;5.78;3.65;;;;;;;;;;4944234;28;20142;-69
2022/03/23 07:37:13;;;;;;;5.57;3.33;;;;;;;;;;4943550;28;20039;-68
2022/03/23 07:39:38;;;;;;;4.57;3.20;;;;;;;;;;4946854;28;20034;-69
2022/03/23 07:42:05;;;;;;;9.75;3.30;;;;;;;;;;4943836;28;20053;-70
2022/03/23 07:44:32;;;;;;;4.05;3.28;;;;;;;;;;4944171;28;20114;-68
2022/03/23 07:46:58;;;;;;;6.28;3.38;;;;;;;;;;4944391;28;20042;-69
2022/03/23 07:49:24;;;;;;;5.50;3.15;;;;;;;;;;4950793;28;20551;-67
2022/03/23 07:51:50;;;;;;;5.45;2.92;;;;;;;;;;4943994;28;20031;-70
2022/03/23 07:54:15;;;;;;;6.13;3.35;;;;;;;;;;4950340;28;20423;-71
2022/03/23 07:56:41;;;;;;;5.15;3.55;;;;;;;;;;4946288;28;20186;-73
2022/03/23 07:59:06;;;;;;;4.72;3.78;;;;;;;;;;4949687;28;20400;-70
2022/03/23 08:01:33;;;;;;;5.00;3.50;;;;;;;;;;4943587;28;20055;-68
2022/03/23 08:03:58;;;;;;;8.65;4.72;;;;;;;;;;4943600;28;20043;-70
2022/03/23 08:06:25;;;;;;;5.63;4.00;;;;;;;;;;4944173;28;20038;-68
2022/03/23 08:08:51;;;;;;;5.28;4.03;;;;;;;;;;4950318;28;20274;-69
2022/03/23 08:11:16;;;;;;;7.72;3.97;;;;;;;;;;4950831;28;20599;-72
2022/03/23 08:13:42;;;;;;;8.23;4.30;;;;;;;;;;4944075;28;20092;-68
2022/03/23 08:16:09;;;;;;;9.75;4.38;;;;;;;;;;4943479;28;20159;-69
2022/03/23 08:18:35;;;;;;;6.25;4.15;;;;;;;;;;4943884;28;20515;-68
2022/03/23 08:21:00;;;;;;;5.40;4.32;;;;;;;;;;4942881;28;20899;-67
2022/03/23 08:23:26;;;;;;;7.32;3.65;;;;;;;;;;4944021;28;20481;-71
2022/03/23 08:25:51;;;;;;;4.88;3.95;;;;;;;;;;4949882;28;20042;-69
2022/03/23 08:28:17;;;;;;;5.60;4.10;;;;;;;;;;4956173;28;20038;-71
2022/03/23 08:30:43;;;;;;;7.00;3.75;;;;;;;;;;4952616;28;20035;-70
2022/03/23 08:33:08;;;;;;;5.38;3.78;;;;;;;;;;4954768;28;20058;-74
2022/03/23 08:35:35;;;;;;;6.07;4.20;;;;;;;;;;4952077;28;20939;-71
2022/03/23 08:38:01;;;;;;;9.63;3.83;;;;;;;;;;4960109;28;20125;-70
2022/03/23 08:40:27;;;;;;;12.15;4.30;;;;;;;;;;4952994;28;20122;-71
2022/03/23 08:42:52;;;;;;;6.93;4.30;;;;;;;;;;4951764;28;20505;-74
2022/03/23 08:45:18;;;;;;;6.72;3.72;;;;;;;;;;4948397;28;20090;-70
2022/03/23 08:47:44;;;;;;;5.93;4.30;;;;;;;;;;4942969;28;20082;-71
2022/03/23 08:50:12;;;;;;;7.28;3.90;;;;;;;;;;4943269;28;20058;-71
2022/03/23 08:52:38;;;;;;;5.97;4.38;;;;;;;;;;4943168;28;20038;-70
2022/03/23 08:55:06;;;;;;;5.50;4.55;;;;;;;;;;4942329;28;20094;-70
2022/03/23 08:57:32;;;;;;;4.68;3.80;;;;;;;;;;4942562;28;20077;-72
2022/03/23 08:59:58;;;;;;;9.50;4.20;;;;;;;;;;4942712;28;20071;-70
2022/03/23 09:02:23;;;;;;;4.97;4.20;;;;;;;;;;4942969;28;20074;-70
2022/03/23 09:04:49;;;;;;;7.10;4.18;;;;;;;;;;4942751;28;20138;-70
2022/03/23 09:10:51;;;;;;;6.00;4.30;;;;;;;;;;5202845;22;20512;-72
2022/03/23 09:13:18;;;;;;;5.93;4.72;;;;;;;;;;4962290;28;20115;-70
2022/03/23 09:15:43;;;;;;;8.48;4.45;;;;;;;;;;4961004;28;20022;-70
2022/03/23 09:18:09;;;;;;;8.52;4.60;;;;;;;;;;4962767;28;21031;-72
2022/03/23 09:20:35;;;;;;;10.80;5.15;;;;;;;;;;4961130;28;20039;-69
2022/03/23 09:23:00;;;;;;;7.38;5.22;;;;;;;;;;4961896;28;20034;-71
2022/03/23 09:25:26;;;;;;;8.07;4.95;;;;;;;;;;4957099;28;20047;-71
2022/03/23 09:27:52;;;;;;;7.90;5.07;;;;;;;;;;4961981;28;20046;-75
2022/03/23 09:30:19;;;;;;;7.93;5.45;;;;;;;;;;4959606;28;20113;-73
2022/03/23 09:32:46;;;;;;;8.93;5.60;;;;;;;;;;4953466;28;20035;-71
2022/03/23 09:35:13;;;;;;;7.80;5.55;;;;;;;;;;4945820;28;20047;-72
2022/03/23 09:37:49;;;;;;;8.75;5.53;;;;;;;;;;4951230;28;20548;-70
2022/03/23 09:40:30;;;;;;;6.65;5.57;;;;;;;;;;4949874;28;20077;-70
2022/03/23 09:42:55;;;;;;;6.72;5.25;;;;;;;;;;4948824;28;20057;-73
2022/03/23 09:45:36;;;;;;;6.53;5.50;;;;;;;;;;4958071;28;20097;-71
2022/03/23 09:48:04;;;;;;;8.10;5.70;;;;;;;;;;4954854;28;20157;-69
2022/03/23 09:50:32;;;;;;;7.95;5.43;;;;;;;;;;4964379;28;20376;-74
2022/03/23 09:52:59;;;;;;;7.15;5.68;;;;;;;;;;4956768;28;20488;-69
2022/03/23 09:55:25;;;;;;;10.18;6.18;;;;;;;;;;4957612;28;20037;-73
2022/03/23 09:57:58;;;;;;;7.30;6.13;;;;;;;;;;4960106;28;20042;-69
2022/03/23 10:00:27;;;;;;;7.10;5.93;;;;;;;;;;4959910;28;20042;-69
2022/03/23 10:03:11;;;;;;;7.18;6.00;;;;;;;;;;4958176;28;20057;-72
2022/03/23 10:06:00;;;;;;;9.30;6.18;;;;;;;;;;4954249;28;20038;-70
2022/03/23 10:09:07;;;;;;;8.98;6.05;;;;;;;;;;4962953;28;20039;-74
2022/03/23 10:12:00;;;;;;;8.00;6.03;;;;;;;;;;4964232;28;20035;-70
2022/03/23 10:14:44;;;;;;;10.88;5.55;;;;;;;;;;4961931;28;20551;-72
2022/03/23 10:17:45;;;;;;;6.68;5.82;;;;;;;;;;4962703;28;20049;-73
2022/03/23 10:20:14;;;;;;;6.88;6.10;;;;;;;;;;4959356;28;20451;-70
2022/03/23 10:22:47;;;;;;;7.65;5.82;;;;;;;;;;4964052;28;20642;-74
2022/03/23 10:25:13;;;;;;;8.15;5.80;;;;;;;;;;4964590;28;20034;-69
2022/03/23 10:27:39;;;;;;;6.53;5.57;;;;;;;;;;4964428;28;20054;-71
2022/03/23 10:30:06;;;;;;;11.20;5.55;;;;;;;;;;4961412;28;20038;-70
2022/03/23 10:32:41;;;;;;;7.93;5.80;;;;;;;;;;4962256;28;20050;-70
2022/03/23 10:35:12;;;;;;;7.68;5.70;;;;;;;;;;4963971;28;20216;-71
2022/03/23 10:37:37;;;;;;;6.85;5.85;;;;;;;;;;4962960;28;20062;-69
2022/03/23 10:40:12;;;;;;;10.40;6.18;;;;;;;;;;4958691;28;20038;-71
2022/03/23 10:42:41;;;;;;;6.38;5.45;;;;;;;;;;4962684;28;20098;-70
2022/03/23 10:45:18;;;;;;;7.88;5.15;;;;;;;;;;4964202;28;20097;-69
2022/03/23 10:47:45;;;;;;;7.43;5.13;;;;;;;;;;4963750;28;20455;-69
2022/03/23 10:50:17;;;;;;;7.00;5.78;;;;;;;;;;4957595;28;20098;-69
2022/03/23 10:52:54;;;;;;;9.98;5.72;;;;;;;;;;4956383;28;21027;-69
2022/03/23 10:55:21;;;;;;;6.90;5.55;;;;;;;;;;4963027;28;20160;-72
2022/03/23 10:57:50;;;;;;;9.90;5.40;;;;;;;;;;4953563;28;20069;-73
2022/03/23 11:00:17;;;;;;;9.27;5.68;;;;;;;;;;4958906;28;20026;-71
2022/03/23 11:02:47;;;;;;;7.05;5.70;;;;;;;;;;4955166;28;20043;-69
2022/03/23 11:05:49;;;;;;;13.05;5.90;;;;;;;;;;4963302;28;20066;-69
2022/03/23 11:08:23;;;;;;;13.77;5.50;;;;;;;;;;4959803;28;20042;-69
2022/03/23 11:16:34;;;;;;;5.03;4.53;;;;;;;;;;4954016;28;20113;-73
2022/03/23 11:19:12;;;;;;;7.63;5.05;;;;;;;;;;4951308;28;20118;-70
2022/03/23 11:21:59;;;;;;;6.10;5.32;;;;;;;;;;4956754;28;20121;-75
2022/03/23 11:24:26;;;;;;;10.00;5.57;;;;;;;;;;4961190;28;20536;-73
2022/03/23 11:26:55;;;;;;;12.85;5.57;;;;;;;;;;4951882;28;20121;-70
2022/03/23 11:29:20;;;;;;;8.43;5.45;;;;;;;;;;4963145;28;20042;-71
2022/03/23 11:31:46;;;;;;;9.80;5.75;;;;;;;;;;4960677;28;20034;-73
2022/03/23 11:34:13;;;;;;;5.95;5.35;;;;;;;;;;4963452;28;20043;-70
2022/03/23 11:36:41;;;;;;;6.40;4.75;;;;;;;;;;4956853;28;20039;-70
2022/03/23 11:39:06;;;;;;;7.75;5.38;;;;;;;;;;4959838;28;20030;-74
2022/03/23 11:41:35;;;;;;;5.63;5.13;;;;;;;;;;4961828;28;20062;-69
2022/03/23 11:44:00;;;;;;;5.85;5.20;;;;;;;;;;4956982;28;20065;-71
2022/03/23 11:46:27;;;;;;;10.52;6.13;;;;;;;;;;4956690;28;20031;-72
2022/03/23 11:49:14;;;;;;;7.15;5.68;;;;;;;;;;4962709;28;20670;-69
2022/03/23 11:51:59;;;;;;;7.47;5.80;;;;;;;;;;4957584;28;20039;-71
2022/03/23 11:57:56;;;;;;;8.13;5.70;;;;;;;;;;4959342;28;20149;-68
2022/03/23 12:00:27;;;;;;;9.52;5.57;;;;;;;;;;4957634;28;20104;-73
2022/03/23 12:02:53;;;;;;;6.00;5.40;;;;;;;;;;4962715;28;20070;-71
2022/03/23 12:05:29;;;;;;;9.60;5.57;;;;;;;;;;4957891;28;20039;-69
2022/03/23 12:07:55;;;;;;;9.75;5.88;;;;;;;;;;4953365;28;20039;-73
2022/03/23 12:10:30;;;;;;;9.05;5.00;;;;;;;;;;4961756;28;20547;-73
2022/03/23 12:12:57;;;;;;;5.97;5.10;;;;;;;;;;4951092;28;20030;-72
2022/03/23 12:15:30;;;;;;;7.55;5.80;;;;;;;;;;4960655;28;20484;-70
2022/03/23 12:17:55;;;;;;;12.75;5.60;;;;;;;;;;4962576;28;20526;-71
2022/03/23 12:20:37;;;;;;;7.95;5.60;;;;;;;;;;4960352;28;20038;-72
2022/03/23 12:23:14;;;;;;;11.60;5.55;;;;;;;;;;4956503;28;20030;-69
2022/03/23 12:26:00;;;;;;;6.10;5.47;;;;;;;;;;4961659;28;20038;-75
2022/03/23 12:28:31;;;;;;;8.45;5.43;;;;;;;;;;4959901;28;20041;-69
2022/03/23 12:30:57;;;;;;;;;;;;;;;;;;4940564;28;20030;-69
2022/03/23 12:33:26;;;;;;;6.18;5.18;;;;;;;;;;4957262;28;20257;-68
2022/03/23 12:35:57;;;;;;;7.25;5.47;;;;;;;;;;4961593;28;20813;-69
2022/03/23 12:38:27;;;;;;;9.55;5.65;;;;;;;;;;4930383;28;20042;-72
2022/03/23 12:41:08;;;;;;;13.90;5.93;;;;;;;;;;4960670;28;20062;-69
2022/03/23 12:43:39;;;;;;;6.25;5.55;;;;;;;;;;4946535;28;20038;-69
2022/03/23 12:46:20;;;;;;;7.72;5.53;;;;;;;;;;4958845;28;20039;-71
2022/03/23 13:00:25;;;;;;;12.73;6.57;;;;;;;;;;4953053;28;20038;-74
2022/03/23 13:03:05;;;;;;;10.60;6.43;;;;;;;;;;4951540;28;20378;-71
2022/03/23 13:05:33;;;;;;;13.35;6.25;;;;;;;;;;4957278;28;20066;-71
2022/03/23 13:07:59;;;;;;;9.32;6.75;;;;;;;;;;4958638;28;20439;-71
2022/03/23 13:10:25;;;;;;;9.98;6.80;;;;;;;;;;4955555;28;20131;-68
2022/03/23 13:12:51;;;;;;;13.10;8.05;;;;;;;;;;4961838;28;20046;-71
2022/03/23 13:15:19;;;;;;;18.27;6.90;;;;;;;;;;4948463;28;20035;-76
2022/03/23 13:17:46;;;;;;;8.02;6.85;;;;;;;;;;4956578;28;20506;-72
2022/03/23 13:20:17;;;;;;;11.73;7.20;;;;;;;;;;4965249;28;20413;-70
2022/03/23 13:23:05;;;;;;;13.20;7.63;;;;;;;;;;4958660;28;20043;-67
2022/03/23 13:25:31;;;;;;;9.73;6.63;;;;;;;;;;4957848;28;20541;-76
2022/03/23 13:27:57;;;;;;;12.68;7.32;;;;;;;;;;4956920;28;20038;-70
2022/03/23 13:30:23;;;;;;;11.90;7.22;;;;;;;;;;4962901;28;20898;-77
2022/03/23 13:32:50;;;;;;;11.20;7.22;;;;;;;;;;4965536;28;20037;-72
2022/03/23 13:35:21;;;;;;;11.20;7.57;;;;;;;;;;4962783;28;20030;-72
2022/03/23 13:37:57;;;;;;;14.10;6.80;;;;;;;;;;4956384;28;20031;-75
2022/03/23 13:43:19;;;;;;;15.52;7.88;;;;;;;;;;4963133;28;20854;-75
2022/03/23 13:43:19;;;;;;;13.30;7.72;;;;;;;;;;4964864;28;20407;-71
2022/03/23 13:45:50;;;;;;;12.18;7.68;;;;;;;;;;4963009;28;20035;-71
2022/03/23 13:48:16;;;;;;;10.68;7.32;;;;;;;;;;4962617;28;20035;-71
2022/03/23 13:50:50;;;;;;;11.80;8.18;;;;;;;;;;4964372;28;20373;-72
2022/03/23 13:53:18;;;;;;;7.30;6.40;;;;;;;;;;4965384;28;20393;-71
2022/03/23 13:55:48;;;;;;;9.65;7.55;;;;;;;;;;4964415;28;20034;-70
2022/03/23 13:58:18;;;;;;;10.65;7.55;;;;;;;;;;4962003;28;20046;-73
2022/03/23 14:00:47;;;;;;;15.07;8.02;;;;;;;;;;4956327;28;20381;-70
2022/03/23 14:03:15;;;;;;;15.13;8.02;;;;;;;;;;4961914;28;20117;-71
2022/03/23 14:06:08;;;;;;;13.23;7.40;;;;;;;;;;4964854;28;20034;-71
2022/03/23 14:08:35;;;;;;;10.27;7.00;;;;;;;;;;4962423;28;20047;-71
2022/03/23 14:11:03;;;;;;;13.05;7.22;;;;;;;;;;4960785;28;20030;-69
2022/03/23 14:13:28;;;;;;;9.57;6.93;;;;;;;;;;4960506;28;20448;-71
2022/03/23 14:15:55;;;;;;;17.42;7.30;;;;;;;;;;4962047;28;20035;-71
2022/03/23 14:18:22;;;;;;;13.60;7.13;;;;;;;;;;4953569;28;20035;-72
2022/03/23 14:20:53;;;;;;;9.75;6.93;;;;;;;;;;4947096;28;20106;-71
2022/03/23 14:23:21;;;;;;;13.23;7.10;;;;;;;;;;4952408;28;20455;-72
2022/03/23 14:25:50;;;;;;;13.70;7.40;;;;;;;;;;4956737;28;20054;-71
2022/03/23 14:28:20;;;;;;;10.57;6.68;;;;;;;;;;4959168;28;20094;-72
2022/03/23 14:30:55;;;;;;;11.50;6.88;;;;;;;;;;4962060;28;20049;-71
2022/03/23 14:33:21;;;;;;;9.20;6.50;;;;;;;;;;4949696;28;20050;-74
2022/03/23 14:35:50;;;;;;;12.05;6.80;;;;;;;;;;4958150;28;20043;-69
2022/03/23 14:38:18;;;;;;;14.13;6.78;;;;;;;;;;4959313;28;20050;-74
2022/03/23 14:40:46;;;;;;;10.90;6.22;;;;;;;;;;4953537;28;20117;-73
2022/03/23 14:43:24;;;;;;;10.43;5.82;;;;;;;;;;4954528;28;20031;-74
2022/03/23 14:45:50;;;;;;;7.93;5.57;;;;;;;;;;4953135;28;20043;-69
2022/03/23 14:48:19;;;;;;;9.32;5.80;;;;;;;;;;4948709;28;20039;-69
2022/03/23 14:50:48;;;;;;;8.10;5.90;;;;;;;;;;4946986;28;20034;-73
2022/03/23 14:53:18;;;;;;;8.13;5.05;;;;;;;;;;4957201;28;20050;-70
2022/03/23 14:55:44;;;;;;;9.93;6.57;;;;;;;;;;4950035;28;20062;-72
2022/03/23 14:58:25;;;;;;;12.75;5.88;;;;;;;;;;4947538;28;20039;-71
2022/03/23 15:00:59;;;;;;;7.25;6.13;;;;;;;;;;4948741;28;20122;-72
2022/03/23 15:03:26;;;;;;;7.97;5.78;;;;;;;;;;4952083;28;20034;-71
2022/03/23 15:14:04;;;;;;;8.65;5.78;;;;;;;;;;4949500;28;20486;-72
2022/03/23 15:16:31;;;;;;;9.52;5.72;;;;;;;;;;4950389;28;20042;-71
2022/03/23 15:18:56;;;;;;;12.23;5.22;;;;;;;;;;4956728;28;20034;-73
2022/03/23 15:21:24;;;;;;;9.43;5.70;;;;;;;;;;4962922;28;20038;-74
2022/03/23 15:23:49;;;;;;;6.88;5.30;;;;;;;;;;4963313;28;20030;-74
2022/03/23 15:26:19;;;;;;;7.55;5.25;;;;;;;;;;4956134;28;20027;-73
2022/03/23 15:28:46;;;;;;;6.20;5.60;;;;;;;;;;4951041;28;20097;-70